sensor_id;sensor_type;location;lat;lon;timestamp;temperature;humidity
44565;DHT22;30275;51.822;-0.326;2022-07-01T00:02:14;18.70;94.80
44565;DHT22;30275;51.822;-0.326;2022-07-01T00:04:40;18.70;94.80
44565;DHT22;30275;51.822;-0.326;2022-07-01T00:07:06;18.60;94.80
44565;DHT22;30275;51.822;-0.326;2022-07-01T00:09:32;18.60;94.80
44565;DHT22;30275;51.822;-0.326;2022-07-01T00:11:57;18.60;94.80
44565;DHT22;30275;51.822;-0.326;2022-07-01T00:14:23;18.60;94.80
44565;DHT22;30275;51.822;-0.326;2022-07-01T00:16:50;18.60;94.80
44565;DHT22;30275;51.822;-0.326;2022-07-01T00:19:16;18.60;94.80
44565;DHT22;30275;51.822;-0.326;2022-07-01T00:21:42;18.50;94.80
44565;DHT22;30275;51.822;-0.326;2022-07-01T00:24:07;18.50;94.70
44565;DHT22;30275;51.822;-0.326;2022-07-01T00:26:33;18.50;94.70
44565;DHT22;30275;51.822;-0.326;2022-07-01T00:28:59;18.50;94.70
44565;DHT22;30275;51.822;-0.326;2022-07-01T00:31:25;18.50;94.70
44565;DHT22;30275;51.822;-0.326;2022-07-01T00:33:50;18.50;94.70
44565;DHT22;30275;51.822;-0.326;2022-07-01T00:36:16;18.40;94.70
44565;DHT22;30275;51.822;-0.326;2022-07-01T00:38:42;18.50;94.70
44565;DHT22;30275;51.822;-0.326;2022-07-01T00:41:07;18.50;94.60
44565;DHT22;30275;51.822;-0.326;2022-07-01T00:43:36;18.40;94.60
44565;DHT22;30275;51.822;-0.326;2022-07-01T00:46:04;18.40;94.50
44565;DHT22;30275;51.822;-0.326;2022-07-01T00:48:31;18.40;94.50
44565;DHT22;30275;51.822;-0.326;2022-07-01T00:50:58;18.40;94.50
44565;DHT22;30275;51.822;-0.326;2022-07-01T00:53:24;18.40;94.50
44565;DHT22;30275;51.822;-0.326;2022-07-01T00:55:50;18.40;94.50
44565;DHT22;30275;51.822;-0.326;2022-07-01T00:58:16;18.30;94.40
44565;DHT22;30275;51.822;-0.326;2022-07-01T01:00:42;18.30;94.40
44565;DHT22;30275;51.822;-0.326;2022-07-01T01:03:08;18.30;94.40
44565;DHT22;30275;51.822;-0.326;2022-07-01T01:05:37;18.30;94.50
44565;DHT22;30275;51.822;-0.326;2022-07-01T01:08:03;18.30;94.50
44565;DHT22;30275;51.822;-0.326;2022-07-01T01:10:30;18.30;94.50
44565;DHT22;30275;51.822;-0.326;2022-07-01T01:12:56;18.30;94.40
44565;DHT22;30275;51.822;-0.326;2022-07-01T01:15:22;18.30;94.70
44565;DHT22;30275;51.822;-0.326;2022-07-01T01:17:49;18.20;94.40
44565;DHT22;30275;51.822;-0.326;2022-07-01T01:20:16;18.20;94.40
44565;DHT22;30275;51.822;-0.326;2022-07-01T01:22:43;18.20;94.40
44565;DHT22;30275;51.822;-0.326;2022-07-01T01:25:10;18.20;94.40
44565;DHT22;30275;51.822;-0.326;2022-07-01T01:27:35;18.20;94.50
44565;DHT22;30275;51.822;-0.326;2022-07-01T01:30:07;18.20;94.50
44565;DHT22;30275;51.822;-0.326;2022-07-01T01:32:33;18.20;94.50
44565;DHT22;30275;51.822;-0.326;2022-07-01T01:34:59;18.20;94.40
44565;DHT22;30275;51.822;-0.326;2022-07-01T01:37:25;18.20;94.40
44565;DHT22;30275;51.822;-0.326;2022-07-01T01:39:50;18.20;94.30
44565;DHT22;30275;51.822;-0.326;2022-07-01T01:42:16;18.20;94.30
44565;DHT22;30275;51.822;-0.326;2022-07-01T01:44:42;18.10;94.20
44565;DHT22;30275;51.822;-0.326;2022-07-01T01:47:07;18.10;94.20
44565;DHT22;30275;51.822;-0.326;2022-07-01T01:49:33;18.10;94.20
44565;DHT22;30275;51.822;-0.326;2022-07-01T01:51:59;18.10;94.30
44565;DHT22;30275;51.822;-0.326;2022-07-01T01:54:25;18.10;94.30
44565;DHT22;30275;51.822;-0.326;2022-07-01T01:56:51;18.10;94.30
44565;DHT22;30275;51.822;-0.326;2022-07-01T01:59:17;18.10;94.30
44565;DHT22;30275;51.822;-0.326;2022-07-01T02:01:43;18.10;94.30
44565;DHT22;30275;51.822;-0.326;2022-07-01T02:04:09;18.10;94.30
44565;DHT22;30275;51.822;-0.326;2022-07-01T02:06:34;18.10;94.40
44565;DHT22;30275;51.822;-0.326;2022-07-01T02:09:00;18.10;94.40
44565;DHT22;30275;51.822;-0.326;2022-07-01T02:11:26;18.00;94.50
44565;DHT22;30275;51.822;-0.326;2022-07-01T02:13:52;18.10;94.50
44565;DHT22;30275;51.822;-0.326;2022-07-01T02:16:18;18.00;94.50
44565;DHT22;30275;51.822;-0.326;2022-07-01T02:18:43;18.00;94.60
44565;DHT22;30275;51.822;-0.326;2022-07-01T02:21:09;18.10;94.60
44565;DHT22;30275;51.822;-0.326;2022-07-01T02:23:35;18.10;94.60
44565;DHT22;30275;51.822;-0.326;2022-07-01T02:26:01;18.00;94.60
44565;DHT22;30275;51.822;-0.326;2022-07-01T02:28:26;18.00;94.80
44565;DHT22;30275;51.822;-0.326;2022-07-01T02:30:52;18.00;94.60
44565;DHT22;30275;51.822;-0.326;2022-07-01T02:33:18;18.00;94.70
44565;DHT22;30275;51.822;-0.326;2022-07-01T02:35:43;18.00;94.70
44565;DHT22;30275;51.822;-0.326;2022-07-01T02:38:09;18.00;94.80
44565;DHT22;30275;51.822;-0.326;2022-07-01T02:40:35;18.00;94.80
44565;DHT22;30275;51.822;-0.326;2022-07-01T02:43:06;18.00;94.80
44565;DHT22;30275;51.822;-0.326;2022-07-01T02:45:32;18.00;94.80
44565;DHT22;30275;51.822;-0.326;2022-07-01T02:47:57;18.00;94.80
44565;DHT22;30275;51.822;-0.326;2022-07-01T02:50:23;18.00;94.80
44565;DHT22;30275;51.822;-0.326;2022-07-01T02:52:49;18.00;94.90
44565;DHT22;30275;51.822;-0.326;2022-07-01T02:55:15;18.00;94.90
44565;DHT22;30275;51.822;-0.326;2022-07-01T02:57:42;18.00;94.90
44565;DHT22;30275;51.822;-0.326;2022-07-01T03:00:13;18.00;94.90
44565;DHT22;30275;51.822;-0.326;2022-07-01T03:02:39;18.00;94.90
44565;DHT22;30275;51.822;-0.326;2022-07-01T03:05:06;18.00;95.00
44565;DHT22;30275;51.822;-0.326;2022-07-01T03:07:32;18.00;95.20
44565;DHT22;30275;51.822;-0.326;2022-07-01T03:09:57;18.00;95.00
44565;DHT22;30275;51.822;-0.326;2022-07-01T03:12:23;18.00;95.00
44565;DHT22;30275;51.822;-0.326;2022-07-01T03:15:13;18.00;95.00
44565;DHT22;30275;51.822;-0.326;2022-07-01T03:17:40;18.00;95.10
44565;DHT22;30275;51.822;-0.326;2022-07-01T03:20:07;18.00;95.10
44565;DHT22;30275;51.822;-0.326;2022-07-01T03:22:34;18.00;95.20
44565;DHT22;30275;51.822;-0.326;2022-07-01T03:25:00;18.00;95.20
44565;DHT22;30275;51.822;-0.326;2022-07-01T03:27:28;18.00;95.20
44565;DHT22;30275;51.822;-0.326;2022-07-01T03:29:54;18.00;95.30
44565;DHT22;30275;51.822;-0.326;2022-07-01T03:32:19;18.00;95.30
44565;DHT22;30275;51.822;-0.326;2022-07-01T03:34:48;18.00;95.30
44565;DHT22;30275;51.822;-0.326;2022-07-01T03:37:14;18.00;95.40
44565;DHT22;30275;51.822;-0.326;2022-07-01T03:39:41;18.00;95.40
44565;DHT22;30275;51.822;-0.326;2022-07-01T03:42:07;18.00;95.40
44565;DHT22;30275;51.822;-0.326;2022-07-01T03:44:34;18.00;95.50
44565;DHT22;30275;51.822;-0.326;2022-07-01T03:47:00;18.00;95.50
44565;DHT22;30275;51.822;-0.326;2022-07-01T03:49:27;17.90;95.40
44565;DHT22;30275;51.822;-0.326;2022-07-01T03:51:53;18.00;95.50
44565;DHT22;30275;51.822;-0.326;2022-07-01T03:54:19;17.90;95.50
44565;DHT22;30275;51.822;-0.326;2022-07-01T03:57:04;17.90;95.50
44565;DHT22;30275;51.822;-0.326;2022-07-01T03:59:32;17.90;95.50
44565;DHT22;30275;51.822;-0.326;2022-07-01T04:01:59;17.90;95.60
44565;DHT22;30275;51.822;-0.326;2022-07-01T04:04:26;17.90;95.60
44565;DHT22;30275;51.822;-0.326;2022-07-01T04:06:59;17.90;95.60
44565;DHT22;30275;51.822;-0.326;2022-07-01T04:09:26;17.90;95.70
44565;DHT22;30275;51.822;-0.326;2022-07-01T04:11:53;17.90;95.70
44565;DHT22;30275;51.822;-0.326;2022-07-01T04:14:18;17.90;95.80
44565;DHT22;30275;51.822;-0.326;2022-07-01T04:16:45;17.90;95.80
44565;DHT22;30275;51.822;-0.326;2022-07-01T04:19:11;17.90;95.80
44565;DHT22;30275;51.822;-0.326;2022-07-01T04:21:38;17.90;95.80
44565;DHT22;30275;51.822;-0.326;2022-07-01T04:24:22;17.90;95.80
44565;DHT22;30275;51.822;-0.326;2022-07-01T04:26:52;17.90;95.80
44565;DHT22;30275;51.822;-0.326;2022-07-01T04:29:18;17.90;95.80
44565;DHT22;30275;51.822;-0.326;2022-07-01T04:31:44;17.90;95.80
44565;DHT22;30275;51.822;-0.326;2022-07-01T04:34:10;17.90;96.10
44565;DHT22;30275;51.822;-0.326;2022-07-01T04:36:37;17.90;95.90
44565;DHT22;30275;51.822;-0.326;2022-07-01T04:39:04;17.90;96.00
44565;DHT22;30275;51.822;-0.326;2022-07-01T04:41:30;17.90;96.00
44565;DHT22;30275;51.822;-0.326;2022-07-01T04:44:15;17.90;96.10
44565;DHT22;30275;51.822;-0.326;2022-07-01T04:46:41;17.90;96.10
44565;DHT22;30275;51.822;-0.326;2022-07-01T04:49:07;17.90;96.10
44565;DHT22;30275;51.822;-0.326;2022-07-01T04:51:33;17.90;96.10
44565;DHT22;30275;51.822;-0.326;2022-07-01T04:54:01;17.90;96.20
44565;DHT22;30275;51.822;-0.326;2022-07-01T04:56:27;17.90;96.20
44565;DHT22;30275;51.822;-0.326;2022-07-01T04:58:54;17.90;96.20
44565;DHT22;30275;51.822;-0.326;2022-07-01T05:01:20;17.90;96.20
44565;DHT22;30275;51.822;-0.326;2022-07-01T05:03:46;17.90;96.20
44565;DHT22;30275;51.822;-0.326;2022-07-01T05:06:12;17.90;96.20
44565;DHT22;30275;51.822;-0.326;2022-07-01T05:08:37;17.90;96.20
44565;DHT22;30275;51.822;-0.326;2022-07-01T05:11:03;17.90;96.20
44565;DHT22;30275;51.822;-0.326;2022-07-01T05:13:29;17.90;96.20
44565;DHT22;30275;51.822;-0.326;2022-07-01T05:15:54;17.90;96.20
44565;DHT22;30275;51.822;-0.326;2022-07-01T05:18:20;17.90;96.20
44565;DHT22;30275;51.822;-0.326;2022-07-01T05:21:04;17.90;96.20
44565;DHT22;30275;51.822;-0.326;2022-07-01T05:23:48;17.90;96.20
44565;DHT22;30275;51.822;-0.326;2022-07-01T05:26:14;17.90;96.20
44565;DHT22;30275;51.822;-0.326;2022-07-01T05:28:46;17.90;96.20
44565;DHT22;30275;51.822;-0.326;2022-07-01T05:31:12;17.90;96.20
44565;DHT22;30275;51.822;-0.326;2022-07-01T05:33:37;17.90;96.20
44565;DHT22;30275;51.822;-0.326;2022-07-01T05:36:04;17.90;96.20
44565;DHT22;30275;51.822;-0.326;2022-07-01T05:38:29;17.90;96.30
44565;DHT22;30275;51.822;-0.326;2022-07-01T05:40:55;17.90;96.30
44565;DHT22;30275;51.822;-0.326;2022-07-01T05:43:21;17.90;96.30
44565;DHT22;30275;51.822;-0.326;2022-07-01T05:45:46;17.90;96.20
44565;DHT22;30275;51.822;-0.326;2022-07-01T05:48:12;17.90;96.20
44565;DHT22;30275;51.822;-0.326;2022-07-01T05:50:39;17.90;96.20
44565;DHT22;30275;51.822;-0.326;2022-07-01T05:53:05;18.00;96.30
44565;DHT22;30275;51.822;-0.326;2022-07-01T05:55:33;18.00;96.30
44565;DHT22;30275;51.822;-0.326;2022-07-01T05:57:59;18.00;96.30
44565;DHT22;30275;51.822;-0.326;2022-07-01T06:00:29;18.00;96.20
44565;DHT22;30275;51.822;-0.326;2022-07-01T06:02:55;18.10;96.20
44565;DHT22;30275;51.822;-0.326;2022-07-01T06:05:21;18.10;96.20
44565;DHT22;30275;51.822;-0.326;2022-07-01T06:07:46;18.10;96.20
44565;DHT22;30275;51.822;-0.326;2022-07-01T06:10:12;18.10;96.20
44565;DHT22;30275;51.822;-0.326;2022-07-01T06:12:38;18.10;96.10
44565;DHT22;30275;51.822;-0.326;2022-07-01T06:15:05;18.20;96.10
44565;DHT22;30275;51.822;-0.326;2022-07-01T06:17:36;18.20;96.10
44565;DHT22;30275;51.822;-0.326;2022-07-01T06:20:03;18.20;96.20
44565;DHT22;30275;51.822;-0.326;2022-07-01T06:22:28;18.20;96.20
44565;DHT22;30275;51.822;-0.326;2022-07-01T06:24:54;18.30;96.20
44565;DHT22;30275;51.822;-0.326;2022-07-01T06:27:20;18.30;96.30
44565;DHT22;30275;51.822;-0.326;2022-07-01T06:29:45;18.30;96.30
44565;DHT22;30275;51.822;-0.326;2022-07-01T06:32:11;18.30;96.30
44565;DHT22;30275;51.822;-0.326;2022-07-01T06:34:37;18.30;96.30
44565;DHT22;30275;51.822;-0.326;2022-07-01T06:37:04;18.40;96.30
44565;DHT22;30275;51.822;-0.326;2022-07-01T06:39:30;18.40;96.20
44565;DHT22;30275;51.822;-0.326;2022-07-01T06:41:56;18.50;96.20
44565;DHT22;30275;51.822;-0.326;2022-07-01T06:44:22;18.50;96.20
44565;DHT22;30275;51.822;-0.326;2022-07-01T06:46:47;18.70;96.20
44565;DHT22;30275;51.822;-0.326;2022-07-01T06:49:13;18.80;96.00
44565;DHT22;30275;51.822;-0.326;2022-07-01T06:51:39;18.90;95.90
44565;DHT22;30275;51.822;-0.326;2022-07-01T06:54:05;18.90;95.70
44565;DHT22;30275;51.822;-0.326;2022-07-01T06:56:31;19.00;95.60
44565;DHT22;30275;51.822;-0.326;2022-07-01T06:58:57;19.00;95.40
44565;DHT22;30275;51.822;-0.326;2022-07-01T07:01:24;19.00;95.30
44565;DHT22;30275;51.822;-0.326;2022-07-01T07:03:49;19.00;95.20
44565;DHT22;30275;51.822;-0.326;2022-07-01T07:06:15;19.00;95.10
44565;DHT22;30275;51.822;-0.326;2022-07-01T07:08:41;19.00;95.10
44565;DHT22;30275;51.822;-0.326;2022-07-01T07:11:07;19.00;95.00
44565;DHT22;30275;51.822;-0.326;2022-07-01T07:13:35;19.00;95.00
44565;DHT22;30275;51.822;-0.326;2022-07-01T07:16:00;19.10;95.00
44565;DHT22;30275;51.822;-0.326;2022-07-01T07:18:26;19.10;94.90
44565;DHT22;30275;51.822;-0.326;2022-07-01T07:20:52;19.20;94.80
44565;DHT22;30275;51.822;-0.326;2022-07-01T07:23:20;19.30;94.60
44565;DHT22;30275;51.822;-0.326;2022-07-01T07:25:46;19.30;94.40
44565;DHT22;30275;51.822;-0.326;2022-07-01T07:28:12;19.30;94.40
44565;DHT22;30275;51.822;-0.326;2022-07-01T07:30:38;19.30;94.40
44565;DHT22;30275;51.822;-0.326;2022-07-01T07:33:04;19.40;94.30
44565;DHT22;30275;51.822;-0.326;2022-07-01T07:35:29;19.40;94.30
44565;DHT22;30275;51.822;-0.326;2022-07-01T07:37:55;19.50;94.40
44565;DHT22;30275;51.822;-0.326;2022-07-01T07:40:21;19.60;94.40
44565;DHT22;30275;51.822;-0.326;2022-07-01T07:42:47;19.70;94.30
44565;DHT22;30275;51.822;-0.326;2022-07-01T07:45:14;19.80;94.50
44565;DHT22;30275;51.822;-0.326;2022-07-01T07:47:48;19.80;94.20
44565;DHT22;30275;51.822;-0.326;2022-07-01T07:50:14;20.00;94.20
44565;DHT22;30275;51.822;-0.326;2022-07-01T07:52:41;20.10;94.10
44565;DHT22;30275;51.822;-0.326;2022-07-01T07:55:08;20.20;94.00
44565;DHT22;30275;51.822;-0.326;2022-07-01T07:57:40;20.30;93.90
44565;DHT22;30275;51.822;-0.326;2022-07-01T08:00:07;20.40;93.70
44565;DHT22;30275;51.822;-0.326;2022-07-01T08:02:33;20.30;93.60
44565;DHT22;30275;51.822;-0.326;2022-07-01T08:04:59;20.30;93.50
44565;DHT22;30275;51.822;-0.326;2022-07-01T08:07:25;20.30;93.60
44565;DHT22;30275;51.822;-0.326;2022-07-01T08:09:51;20.20;93.60
44565;DHT22;30275;51.822;-0.326;2022-07-01T08:12:17;20.30;93.90
44565;DHT22;30275;51.822;-0.326;2022-07-01T08:14:44;20.30;93.60
44565;DHT22;30275;51.822;-0.326;2022-07-01T08:17:09;20.40;93.60
44565;DHT22;30275;51.822;-0.326;2022-07-01T08:19:38;20.40;93.50
44565;DHT22;30275;51.822;-0.326;2022-07-01T08:22:03;20.50;93.40
44565;DHT22;30275;51.822;-0.326;2022-07-01T08:24:29;20.50;93.40
44565;DHT22;30275;51.822;-0.326;2022-07-01T08:26:55;20.50;93.40
44565;DHT22;30275;51.822;-0.326;2022-07-01T08:29:21;20.60;93.40
44565;DHT22;30275;51.822;-0.326;2022-07-01T08:31:46;20.70;93.30
44565;DHT22;30275;51.822;-0.326;2022-07-01T08:34:12;20.80;93.20
44565;DHT22;30275;51.822;-0.326;2022-07-01T08:36:38;20.90;93.10
44565;DHT22;30275;51.822;-0.326;2022-07-01T08:39:04;20.90;93.00
44565;DHT22;30275;51.822;-0.326;2022-07-01T08:41:30;21.00;92.90
44565;DHT22;30275;51.822;-0.326;2022-07-01T08:43:55;21.10;92.80
44565;DHT22;30275;51.822;-0.326;2022-07-01T08:46:26;21.10;92.70
44565;DHT22;30275;51.822;-0.326;2022-07-01T08:48:52;21.20;92.60
44565;DHT22;30275;51.822;-0.326;2022-07-01T08:51:18;21.20;92.60
44565;DHT22;30275;51.822;-0.326;2022-07-01T08:53:44;21.30;92.50
44565;DHT22;30275;51.822;-0.326;2022-07-01T08:56:09;21.40;92.50
44565;DHT22;30275;51.822;-0.326;2022-07-01T08:58:53;21.40;92.30
44565;DHT22;30275;51.822;-0.326;2022-07-01T09:01:24;21.50;92.50
44565;DHT22;30275;51.822;-0.326;2022-07-01T09:03:56;21.50;92.20
44565;DHT22;30275;51.822;-0.326;2022-07-01T09:06:23;21.60;92.10
44565;DHT22;30275;51.822;-0.326;2022-07-01T09:08:49;21.60;92.00
44565;DHT22;30275;51.822;-0.326;2022-07-01T09:11:22;21.60;91.90
44565;DHT22;30275;51.822;-0.326;2022-07-01T09:14:08;21.50;91.80
44565;DHT22;30275;51.822;-0.326;2022-07-01T09:16:43;21.50;91.80
44565;DHT22;30275;51.822;-0.326;2022-07-01T09:19:10;21.50;92.10
44565;DHT22;30275;51.822;-0.326;2022-07-01T09:21:36;21.50;91.80
44565;DHT22;30275;51.822;-0.326;2022-07-01T09:24:05;21.60;91.80
44565;DHT22;30275;51.822;-0.326;2022-07-01T09:26:32;21.60;91.60
44565;DHT22;30275;51.822;-0.326;2022-07-01T09:28:58;21.50;91.50
44565;DHT22;30275;51.822;-0.326;2022-07-01T09:31:35;21.50;91.50
44565;DHT22;30275;51.822;-0.326;2022-07-01T09:34:07;21.50;91.40
44565;DHT22;30275;51.822;-0.326;2022-07-01T09:36:38;21.60;91.30
44565;DHT22;30275;51.822;-0.326;2022-07-01T09:39:05;21.60;91.20
44565;DHT22;30275;51.822;-0.326;2022-07-01T09:41:36;21.60;91.00
44565;DHT22;30275;51.822;-0.326;2022-07-01T09:44:06;21.60;90.90
44565;DHT22;30275;51.822;-0.326;2022-07-01T09:46:32;21.50;91.00
44565;DHT22;30275;51.822;-0.326;2022-07-01T09:48:58;21.40;91.00
44565;DHT22;30275;51.822;-0.326;2022-07-01T09:51:24;21.40;91.00
44565;DHT22;30275;51.822;-0.326;2022-07-01T09:53:50;21.40;91.00
44565;DHT22;30275;51.822;-0.326;2022-07-01T09:56:16;21.40;91.00
44565;DHT22;30275;51.822;-0.326;2022-07-01T09:58:42;21.30;90.90
44565;DHT22;30275;51.822;-0.326;2022-07-01T10:01:12;21.30;90.80
44565;DHT22;30275;51.822;-0.326;2022-07-01T10:03:38;21.40;90.70
44565;DHT22;30275;51.822;-0.326;2022-07-01T10:06:51;21.50;90.50
44565;DHT22;30275;51.822;-0.326;2022-07-01T10:14:30;21.50;89.90
44565;DHT22;30275;51.822;-0.326;2022-07-01T10:16:56;21.50;89.50
44565;DHT22;30275;51.822;-0.326;2022-07-01T10:19:29;21.50;89.40
44565;DHT22;30275;51.822;-0.326;2022-07-01T10:22:00;21.50;89.10
44565;DHT22;30275;51.822;-0.326;2022-07-01T10:24:27;21.60;89.10
44565;DHT22;30275;51.822;-0.326;2022-07-01T10:27:00;21.60;89.00
44565;DHT22;30275;51.822;-0.326;2022-07-01T10:29:36;21.70;88.90
44565;DHT22;30275;51.822;-0.326;2022-07-01T10:32:13;21.70;88.50
44565;DHT22;30275;51.822;-0.326;2022-07-01T10:34:50;21.80;88.40
44565;DHT22;30275;51.822;-0.326;2022-07-01T10:37:27;21.80;87.90
44565;DHT22;30275;51.822;-0.326;2022-07-01T10:42:31;21.80;87.90
44565;DHT22;30275;51.822;-0.326;2022-07-01T10:45:11;21.70;87.20
44565;DHT22;30275;51.822;-0.326;2022-07-01T10:47:38;21.70;87.20
44565;DHT22;30275;51.822;-0.326;2022-07-01T10:50:05;21.60;87.10
44565;DHT22;30275;51.822;-0.326;2022-07-01T10:52:31;21.50;86.80
44565;DHT22;30275;51.822;-0.326;2022-07-01T10:55:01;21.40;86.70
44565;DHT22;30275;51.822;-0.326;2022-07-01T10:57:53;21.30;86.60
44565;DHT22;30275;51.822;-0.326;2022-07-01T11:02:45;21.10;86.50
44565;DHT22;30275;51.822;-0.326;2022-07-01T11:05:11;21.00;86.50
44565;DHT22;30275;51.822;-0.326;2022-07-01T11:07:46;20.80;86.60
44565;DHT22;30275;51.822;-0.326;2022-07-01T11:10:14;20.80;86.80
44565;DHT22;30275;51.822;-0.326;2022-07-01T11:12:42;20.70;86.90
44565;DHT22;30275;51.822;-0.326;2022-07-01T11:15:10;20.70;87.10
44565;DHT22;30275;51.822;-0.326;2022-07-01T11:17:42;20.60;87.30
44565;DHT22;30275;51.822;-0.326;2022-07-01T11:20:09;20.60;87.60
44565;DHT22;30275;51.822;-0.326;2022-07-01T11:22:35;20.60;87.80
44565;DHT22;30275;51.822;-0.326;2022-07-01T11:25:07;20.50;87.90
44565;DHT22;30275;51.822;-0.326;2022-07-01T11:27:33;20.50;88.10
44565;DHT22;30275;51.822;-0.326;2022-07-01T11:30:04;20.50;88.20
44565;DHT22;30275;51.822;-0.326;2022-07-01T11:32:33;20.50;88.30
44565;DHT22;30275;51.822;-0.326;2022-07-01T11:34:59;20.50;88.40
44565;DHT22;30275;51.822;-0.326;2022-07-01T11:37:31;20.40;88.50
44565;DHT22;30275;51.822;-0.326;2022-07-01T11:40:16;20.40;88.60
44565;DHT22;30275;51.822;-0.326;2022-07-01T11:42:43;20.40;88.80
44565;DHT22;30275;51.822;-0.326;2022-07-01T11:45:24;20.40;88.90
44565;DHT22;30275;51.822;-0.326;2022-07-01T11:47:50;20.30;89.10
44565;DHT22;30275;51.822;-0.326;2022-07-01T11:50:16;20.30;89.20
44565;DHT22;30275;51.822;-0.326;2022-07-01T11:52:42;20.30;90.00
44565;DHT22;30275;51.822;-0.326;2022-07-01T11:55:08;20.30;89.50
44565;DHT22;30275;51.822;-0.326;2022-07-01T11:57:34;20.30;89.70
44565;DHT22;30275;51.822;-0.326;2022-07-01T12:00:09;20.30;90.00
44565;DHT22;30275;51.822;-0.326;2022-07-01T12:02:35;20.30;90.10
44565;DHT22;30275;51.822;-0.326;2022-07-01T12:05:00;20.30;90.20
44565;DHT22;30275;51.822;-0.326;2022-07-01T12:07:27;20.30;90.30
44565;DHT22;30275;51.822;-0.326;2022-07-01T12:09:53;20.30;90.70
44565;DHT22;30275;51.822;-0.326;2022-07-01T12:12:21;20.20;90.50
44565;DHT22;30275;51.822;-0.326;2022-07-01T12:14:57;20.30;90.60
44565;DHT22;30275;51.822;-0.326;2022-07-01T12:17:24;20.20;90.70
44565;DHT22;30275;51.822;-0.326;2022-07-01T12:19:51;20.30;90.80
44565;DHT22;30275;51.822;-0.326;2022-07-01T12:22:18;20.20;90.90
44565;DHT22;30275;51.822;-0.326;2022-07-01T12:24:45;20.20;91.00
44565;DHT22;30275;51.822;-0.326;2022-07-01T12:27:11;20.20;91.00
44565;DHT22;30275;51.822;-0.326;2022-07-01T12:32:04;20.20;91.20
44565;DHT22;30275;51.822;-0.326;2022-07-01T12:34:51;20.20;91.30
44565;DHT22;30275;51.822;-0.326;2022-07-01T12:37:35;20.30;91.40
44565;DHT22;30275;51.822;-0.326;2022-07-01T12:40:06;20.30;91.50
44565;DHT22;30275;51.822;-0.326;2022-07-01T12:47:37;20.40;91.80
44565;DHT22;30275;51.822;-0.326;2022-07-01T12:50:09;20.40;91.90
44565;DHT22;30275;51.822;-0.326;2022-07-01T12:52:36;20.50;91.90
44565;DHT22;30275;51.822;-0.326;2022-07-01T12:57:39;20.50;91.90
44565;DHT22;30275;51.822;-0.326;2022-07-01T13:00:05;20.50;92.00
44565;DHT22;30275;51.822;-0.326;2022-07-01T13:02:31;20.50;92.00
44565;DHT22;30275;51.822;-0.326;2022-07-01T13:04:57;20.50;92.00
44565;DHT22;30275;51.822;-0.326;2022-07-01T13:07:22;20.50;92.00
44565;DHT22;30275;51.822;-0.326;2022-07-01T13:09:48;20.50;92.00
44565;DHT22;30275;51.822;-0.326;2022-07-01T13:12:14;20.50;92.00
44565;DHT22;30275;51.822;-0.326;2022-07-01T13:14:40;20.50;92.00
44565;DHT22;30275;51.822;-0.326;2022-07-01T13:17:06;20.50;92.00
44565;DHT22;30275;51.822;-0.326;2022-07-01T13:19:31;20.50;92.00
44565;DHT22;30275;51.822;-0.326;2022-07-01T13:22:01;20.50;92.10
44565;DHT22;30275;51.822;-0.326;2022-07-01T13:24:27;20.50;92.10
44565;DHT22;30275;51.822;-0.326;2022-07-01T13:26:53;20.50;92.10
44565;DHT22;30275;51.822;-0.326;2022-07-01T13:29:18;20.50;92.10
44565;DHT22;30275;51.822;-0.326;2022-07-01T13:31:44;20.50;92.20
44565;DHT22;30275;51.822;-0.326;2022-07-01T13:34:10;20.50;92.20
44565;DHT22;30275;51.822;-0.326;2022-07-01T13:36:35;20.50;92.20
44565;DHT22;30275;51.822;-0.326;2022-07-01T13:39:01;20.50;92.20
44565;DHT22;30275;51.822;-0.326;2022-07-01T13:41:26;20.50;92.20
44565;DHT22;30275;51.822;-0.326;2022-07-01T13:43:52;20.50;92.20
44565;DHT22;30275;51.822;-0.326;2022-07-01T13:46:18;20.50;92.30
44565;DHT22;30275;51.822;-0.326;2022-07-01T13:48:43;20.50;92.30
44565;DHT22;30275;51.822;-0.326;2022-07-01T13:51:09;20.50;92.30
44565;DHT22;30275;51.822;-0.326;2022-07-01T13:53:35;20.50;92.30
44565;DHT22;30275;51.822;-0.326;2022-07-01T13:56:00;20.50;92.30
44565;DHT22;30275;51.822;-0.326;2022-07-01T13:58:26;20.60;92.40
44565;DHT22;30275;51.822;-0.326;2022-07-01T14:00:52;20.60;92.40
44565;DHT22;30275;51.822;-0.326;2022-07-01T14:03:17;20.60;92.40
44565;DHT22;30275;51.822;-0.326;2022-07-01T14:05:43;20.60;92.40
44565;DHT22;30275;51.822;-0.326;2022-07-01T14:08:09;20.60;92.40
44565;DHT22;30275;51.822;-0.326;2022-07-01T14:10:34;20.60;92.40
44565;DHT22;30275;51.822;-0.326;2022-07-01T14:13:06;20.70;92.40
44565;DHT22;30275;51.822;-0.326;2022-07-01T14:15:31;20.70;92.40
44565;DHT22;30275;51.822;-0.326;2022-07-01T14:18:00;20.70;92.40
44565;DHT22;30275;51.822;-0.326;2022-07-01T14:20:25;20.70;92.70
44565;DHT22;30275;51.822;-0.326;2022-07-01T14:22:52;20.70;92.40
44565;DHT22;30275;51.822;-0.326;2022-07-01T14:25:21;20.70;92.50
44565;DHT22;30275;51.822;-0.326;2022-07-01T14:27:46;20.60;92.40
44565;DHT22;30275;51.822;-0.326;2022-07-01T14:30:12;20.60;92.50
44565;DHT22;30275;51.822;-0.326;2022-07-01T14:32:38;20.60;92.50
44565;DHT22;30275;51.822;-0.326;2022-07-01T14:35:05;20.60;92.50
44565;DHT22;30275;51.822;-0.326;2022-07-01T14:37:31;20.70;92.50
44565;DHT22;30275;51.822;-0.326;2022-07-01T14:39:57;20.60;92.50
44565;DHT22;30275;51.822;-0.326;2022-07-01T14:42:25;20.70;92.60
44565;DHT22;30275;51.822;-0.326;2022-07-01T14:44:50;20.70;92.50
44565;DHT22;30275;51.822;-0.326;2022-07-01T14:47:18;20.70;92.50
44565;DHT22;30275;51.822;-0.326;2022-07-01T14:49:44;20.70;92.50
44565;DHT22;30275;51.822;-0.326;2022-07-01T14:52:10;20.70;92.40
44565;DHT22;30275;51.822;-0.326;2022-07-01T14:54:38;20.70;92.40
44565;DHT22;30275;51.822;-0.326;2022-07-01T14:57:04;20.70;92.40
44565;DHT22;30275;51.822;-0.326;2022-07-01T14:59:30;20.70;92.40
44565;DHT22;30275;51.822;-0.326;2022-07-01T15:01:56;20.70;92.30
44565;DHT22;30275;51.822;-0.326;2022-07-01T15:04:26;20.70;92.30
44565;DHT22;30275;51.822;-0.326;2022-07-01T15:06:52;20.60;92.30
44565;DHT22;30275;51.822;-0.326;2022-07-01T15:09:18;20.60;92.20
44565;DHT22;30275;51.822;-0.326;2022-07-01T15:11:48;20.60;92.20
44565;DHT22;30275;51.822;-0.326;2022-07-01T15:14:13;20.60;92.20
44565;DHT22;30275;51.822;-0.326;2022-07-01T15:16:39;20.60;92.10
44565;DHT22;30275;51.822;-0.326;2022-07-01T15:19:05;20.60;92.10
44565;DHT22;30275;51.822;-0.326;2022-07-01T15:21:31;20.60;92.30
44565;DHT22;30275;51.822;-0.326;2022-07-01T15:23:57;20.60;91.90
44565;DHT22;30275;51.822;-0.326;2022-07-01T15:26:23;20.60;91.80
44565;DHT22;30275;51.822;-0.326;2022-07-01T15:28:48;20.60;91.80
44565;DHT22;30275;51.822;-0.326;2022-07-01T15:31:14;20.60;91.60
44565;DHT22;30275;51.822;-0.326;2022-07-01T15:33:42;20.60;91.50
44565;DHT22;30275;51.822;-0.326;2022-07-01T15:36:08;20.60;91.30
44565;DHT22;30275;51.822;-0.326;2022-07-01T15:38:34;20.60;91.20